Aérodrome :







RETROUVEZ-NOUS SUR...

 
LOGIN :

S'inscrire | Disclaimer

   EN    FR    IT 

 









Légende :    VFR   VFR Marginal   IFR   IFR Intensif   IFR Très Intensif
Visi : 
Plafond : 
>= 8 km
>= 3000ft
5 à 8 km
1000 à 3000 ft
1500m à 5 km
500 à 1000 ft
800 à 1500m
200 à 500 ft
< 800m
< 200 ft
Symboles :   Orages  Brouillard  Fortes neiges  Fortes précipitations  Vent > 20 kt






- Altitude de l'aérodrome : 26 ft
- Code IATA : CAY


SOCA - Rochambeau

DERNIER METAR :
  • 302000Z AUTO 03007KT 9999 FEW043/// 27/24 Q1008 TEMPO 4000 SHRA SCT015TCU BKN020

METARs EXPIRÉS :
  • 301930Z AUTO 04010KT 5000 -RA BR FEW017/// BKN031/// BKN040/// 26/24 Q1008 TEMPO SHRA SCT015TCU BKN020
  • 301900Z AUTO 05011KT 9999 BKN019/// BKN024/// BKN036/// 28/24 Q1008 TEMPO 4000 SHRA SCT015TCU BKN020
  • 301830Z AUTO 05010KT 9999 BKN020/// BKN028/// BKN036/// 29/23 Q1009 TEMPO 4000 SHRA SCT015TCU BKN020
  • 301800Z AUTO 03012KT 010V080 9999 BKN016/// BKN024/// BKN039/// 28/23 Q1009 TEMPO 4000 SHRA SCT015TCU BKN020

TAF AMD TAF SOCA
Valide du 30 à 17h jusqu'au 31 à 18h UTC


301705Z 3017/3118 06012KT 9999 FEW023 SCT035
TEMPO 3018/3118 4000 SHRA SCT015TCU BKN020
BECMG 3020/3022 VRB02KT
FM311200 06010KT 9999 SCT020 BKN035



MET'MAP, la Météo Aéronautique d'un coup d'oeil ! - Copyright ORBIFLY Décembre 2007 - Disclaimer

ORBIFLY MET'MAP TEAM :

Programmation & Développement : Alexandra Zaïnal
Sur une idée originale de : Baudouin d'Aumeries
Assistance à la programmation : Marc-Olivier Méhu
Soutien technique & logistique : Manuel Goepfert

Contact : metmap@orbifly.com




SOURCES & CREDITS :

   NOAA